Time;durP1;ratioP1;P1;durP2;ratioP2;P2;SDS_P1;SDS_P2;PMS_P1;PMS_P2;Temp;Humidity;BMP_temperature;BMP_pressure;BME280_temperature;BME280_humidity;BME280_pressure;Samples;Min_cycle;Max_cycle;Signal;HPM_P1;HPM_P2
2022/10/21 00:00:41;;;;;;;12.53;9.70;;;15.00;99.90;;;;;;5014476;28;20460;-72
2022/10/21 00:03:11;;;;;;;15.60;10.30;;;14.90;99.90;;;;;;5026167;28;20414;-72
2022/10/21 00:05:40;;;;;;;12.87;9.10;;;14.90;99.90;;;;;;5028544;28;20487;-72
2022/10/21 00:08:06;;;;;;;11.90;9.80;;;15.00;99.90;;;;;;5043741;28;20451;-72
2022/10/21 00:10:36;;;;;;;15.27;10.00;;;15.00;99.90;;;;;;5031563;28;20917;-71
2022/10/21 00:13:05;;;;;;;14.10;9.57;;;15.00;99.90;;;;;;5031805;28;20420;-72
2022/10/21 00:15:33;;;;;;;12.00;8.70;;;15.00;99.90;;;;;;5027568;28;20454;-72
2022/10/21 00:18:04;;;;;;;14.90;9.50;;;15.00;99.90;;;;;;5022393;28;20452;-71
2022/10/21 00:20:32;;;;;;;10.20;8.97;;;15.00;99.90;;;;;;5014946;28;20447;-71
2022/10/21 00:23:03;;;;;;;12.50;9.23;;;15.00;99.90;;;;;;5017404;28;20425;-72
2022/10/21 00:25:29;;;;;;;13.00;9.80;;;15.00;99.90;;;;;;5015863;28;20458;-71
2022/10/21 00:27:55;;;;;;;11.60;9.63;;;15.00;99.90;;;;;;5040184;28;20456;-72
2022/10/21 00:30:25;;;;;;;12.33;9.10;;;15.00;99.90;;;;;;5040409;28;20414;-71
2022/10/21 00:33:21;;;;;;;14.97;9.07;;;15.00;99.90;;;;;;5051210;28;20418;-71
2022/10/21 00:35:55;;;;;;;11.60;8.67;;;15.00;99.90;;;;;;5035834;28;20459;-71
2022/10/21 00:38:23;;;;;;;13.50;9.67;;;15.00;99.90;;;;;;5045284;28;20464;-71
2022/10/21 00:40:54;;;;;;;12.47;8.83;;;15.00;99.90;;;;;;5037204;28;20452;-71
2022/10/21 00:43:21;;;;;;;9.37;8.10;;;15.00;99.90;;;;;;5017988;28;20428;-71
2022/10/21 00:45:54;;;;;;;10.30;8.50;;;15.00;99.90;;;;;;5018864;28;20458;-71
2022/10/21 00:48:37;;;;;;;12.67;8.77;;;15.00;99.90;;;;;;5019785;28;20493;-72
2022/10/21 00:51:08;;;;;;;14.30;8.93;;;15.00;99.90;;;;;;5029261;28;20962;-71
2022/10/21 00:53:41;;;;;;;9.70;7.93;;;15.00;99.90;;;;;;5052288;28;20414;-71
2022/10/21 00:56:19;;;;;;;8.57;7.37;;;15.00;99.90;;;;;;5040024;28;20426;-71
2022/10/21 00:58:47;;;;;;;8.87;7.97;;;15.00;99.90;;;;;;5036621;28;20812;-71
2022/10/21 01:01:17;;;;;;;10.60;7.97;;;15.00;99.90;;;;;;5020705;28;20420;-71
2022/10/21 01:03:43;;;;;;;9.30;7.13;;;15.00;99.90;;;;;;5001445;28;20419;-71
2022/10/21 01:06:14;;;;;;;11.70;7.20;;;15.00;99.90;;;;;;5023385;28;20454;-71
2022/10/21 01:08:43;;;;;;;12.17;8.17;;;15.00;99.90;;;;;;5034478;28;20474;-72
2022/10/21 01:11:16;;;;;;;8.80;7.13;;;15.00;99.90;;;;;;5020953;28;20523;-72
2022/10/21 01:13:56;;;;;;;8.80;7.77;;;15.00;99.90;;;;;;5034860;28;20429;-71
2022/10/21 01:16:54;;;;;;;11.27;8.50;;;15.00;99.90;;;;;;4997815;28;20438;-71
2022/10/21 01:19:45;;;;;;;9.87;7.43;;;15.00;99.90;;;;;;4995247;28;20450;-71
2022/10/21 01:22:44;;;;;;;9.63;7.73;;;15.00;99.90;;;;;;5054443;28;20440;-71
2022/10/21 01:25:54;;;;;;;10.20;7.03;;;15.00;99.90;;;;;;5024725;28;20455;-71
2022/10/21 01:28:58;;;;;;;8.57;7.67;;;15.00;99.90;;;;;;5046586;28;21120;-71
2022/10/21 01:31:26;;;;;;;8.90;7.67;;;15.00;99.90;;;;;;5017072;28;20481;-71
2022/10/21 01:33:57;;;;;;;9.27;7.30;;;14.90;99.90;;;;;;5044629;28;20414;-72
2022/10/21 01:36:32;;;;;;;8.50;7.07;;;14.90;99.90;;;;;;5016950;28;20962;-72
2022/10/21 01:39:25;;;;;;;15.43;8.03;;;15.00;99.90;;;;;;5035646;28;20539;-72
2022/10/21 01:42:06;;;;;;;31.70;7.47;;;14.90;99.90;;;;;;5034699;28;20790;-72
2022/10/21 01:44:50;;;;;;;8.87;7.50;;;15.00;99.90;;;;;;5024465;28;20891;-72
2022/10/21 01:47:28;;;;;;;8.70;6.50;;;15.00;99.90;;;;;;5033683;28;21013;-72
2022/10/21 01:50:25;;;;;;;10.33;8.53;;;15.00;99.90;;;;;;5031052;28;20460;-72
2022/10/21 01:53:03;;;;;;;8.23;6.90;;;15.00;99.90;;;;;;5021648;28;20792;-71
2022/10/21 01:55:31;;;;;;;9.23;7.00;;;15.00;99.90;;;;;;5000596;28;20512;-72
2022/10/21 01:58:10;;;;;;;11.47;7.33;;;14.90;99.90;;;;;;5034223;28;20430;-72
2022/10/21 02:00:38;;;;;;;11.03;6.83;;;15.00;99.90;;;;;;5016703;28;20578;-71
2022/10/21 02:03:09;;;;;;;10.30;7.23;;;15.00;99.90;;;;;;4999264;28;20447;-72
2022/10/21 02:05:41;;;;;;;8.10;6.70;;;15.00;99.90;;;;;;4987621;28;20566;-72
2022/10/21 02:08:07;;;;;;;7.30;6.60;;;15.00;99.90;;;;;;5036021;28;20519;-72
2022/10/21 02:10:42;;;;;;;8.80;6.60;;;15.00;99.90;;;;;;5018025;28;20446;-72
2022/10/21 02:13:15;;;;;;;6.90;6.10;;;14.90;99.90;;;;;;5033975;28;20804;-71
2022/10/21 02:15:42;;;;;;;9.17;7.10;;;15.00;99.90;;;;;;5027007;28;20423;-72
2022/10/21 02:18:20;;;;;;;9.23;6.93;;;15.00;99.90;;;;;;5027506;28;20458;-72
2022/10/21 02:20:51;;;;;;;7.57;6.40;;;15.00;99.90;;;;;;4998979;28;20519;-72
2022/10/21 02:23:45;;;;;;;7.80;6.63;;;15.00;99.90;;;;;;5041664;28;20429;-72
2022/10/21 02:26:11;;;;;;;8.77;6.97;;;15.00;99.90;;;;;;5012466;28;20917;-72
2022/10/21 02:28:40;;;;;;;6.87;6.17;;;14.90;99.90;;;;;;5013570;28;20475;-72
2022/10/21 02:31:43;;;;;;;7.83;6.03;;;15.00;99.90;;;;;;5010775;28;20476;-72
2022/10/21 02:34:14;;;;;;;8.77;6.00;;;15.00;99.90;;;;;;5028755;28;20415;-71
2022/10/21 02:37:06;;;;;;;13.20;6.10;;;15.00;99.90;;;;;;5051678;28;20445;-72
2022/10/21 02:39:51;;;;;;;7.90;5.63;;;15.00;99.90;;;;;;5027955;28;20529;-71
2022/10/21 02:42:29;;;;;;;6.73;5.50;;;14.90;99.90;;;;;;5016031;28;20443;-71
2022/10/21 02:44:55;;;;;;;5.97;5.30;;;15.00;99.90;;;;;;5033498;28;20463;-71
2022/10/21 02:47:26;;;;;;;7.53;5.73;;;14.90;99.90;;;;;;5035098;28;20502;-71
2022/10/21 02:49:55;;;;;;;6.60;5.70;;;14.90;99.90;;;;;;5015268;28;20417;-72
2022/10/21 02:52:23;;;;;;;7.30;5.40;;;15.00;99.90;;;;;;5032378;28;20971;-71
2022/10/21 02:54:51;;;;;;;6.30;5.40;;;15.00;99.90;;;;;;5036035;28;20419;-72
2022/10/21 02:57:17;;;;;;;5.80;5.20;;;14.90;99.90;;;;;;5034323;28;20470;-72
2022/10/21 02:59:43;;;;;;;6.53;4.80;;;15.00;99.90;;;;;;5015208;28;20686;-72
2022/10/21 03:02:09;;;;;;;6.87;5.03;;;15.00;99.90;;;;;;5045587;28;20511;-72
2022/10/21 03:04:35;;;;;;;6.40;5.20;;;15.00;99.90;;;;;;4999008;28;20411;-73
2022/10/21 03:07:06;;;;;;;6.80;5.63;;;15.00;99.90;;;;;;5019682;28;20463;-71
2022/10/21 03:09:34;;;;;;;8.33;5.60;;;15.00;99.90;;;;;;5015434;28;20423;-71
2022/10/21 03:12:00;;;;;;;9.73;5.60;;;15.00;99.90;;;;;;5050493;28;20446;-71
2022/10/21 03:14:29;;;;;;;7.33;4.97;;;15.00;99.90;;;;;;5052542;28;20417;-72
2022/10/21 03:16:55;;;;;;;7.37;4.90;;;15.00;99.90;;;;;;5015319;28;20439;-72
2022/10/21 03:19:25;;;;;;;6.60;4.90;;;15.00;99.90;;;;;;5033969;28;20451;-71
2022/10/21 03:21:58;;;;;;;6.90;4.73;;;15.00;99.90;;;;;;5030389;28;20504;-72
2022/10/21 03:24:24;;;;;;;10.57;5.00;;;15.00;99.90;;;;;;5015108;28;20453;-71
2022/10/21 03:26:50;;;;;;;5.50;4.60;;;15.00;99.90;;;;;;5030069;28;20832;-71
2022/10/21 03:29:18;;;;;;;5.93;4.70;;;15.00;99.90;;;;;;5049864;28;20427;-72
2022/10/21 03:31:44;;;;;;;5.33;4.67;;;15.00;99.90;;;;;;5018375;28;20451;-71
2022/10/21 03:34:10;;;;;;;5.80;4.53;;;15.00;99.90;;;;;;5016225;28;21112;-71
2022/10/21 03:36:36;;;;;;;5.77;4.73;;;15.00;99.90;;;;;;5012172;28;20532;-71
2022/10/21 03:39:02;;;;;;;8.00;4.80;;;15.00;99.90;;;;;;5016447;28;20330;-72
2022/10/21 03:41:28;;;;;;;5.47;4.40;;;15.00;99.90;;;;;;5050174;28;20414;-72
2022/10/21 03:43:56;;;;;;;6.17;4.23;;;15.00;99.90;;;;;;5031664;28;20883;-71
2022/10/21 03:46:22;;;;;;;4.37;3.97;;;15.00;99.90;;;;;;5010034;28;20545;-72
2022/10/21 03:48:50;;;;;;;4.87;4.37;;;15.00;99.90;;;;;;5018192;28;20453;-72
2022/10/21 03:51:20;;;;;;;5.63;5.00;;;15.00;99.90;;;;;;5050458;28;20420;-71
2022/10/21 03:53:50;;;;;;;6.53;4.73;;;15.00;99.90;;;;;;5048136;28;20778;-71
2022/10/21 03:56:16;;;;;;;4.73;4.23;;;15.00;99.90;;;;;;5025649;28;20440;-72
2022/10/21 03:58:44;;;;;;;5.53;4.53;;;15.00;99.90;;;;;;5032806;28;20466;-71
2022/10/21 04:01:12;;;;;;;5.07;4.57;;;15.00;99.90;;;;;;5034649;28;20500;-72
2022/10/21 04:03:40;;;;;;;4.60;4.03;;;15.00;99.90;;;;;;5041325;28;20820;-71
2022/10/21 04:06:09;;;;;;;6.40;4.70;;;15.00;99.90;;;;;;5027219;28;20455;-73
2022/10/21 04:08:37;;;;;;;6.33;4.40;;;15.00;99.90;;;;;;5015779;28;20500;-73
2022/10/21 04:11:05;;;;;;;6.80;3.90;;;15.00;99.90;;;;;;5011816;28;20472;-73
2022/10/21 04:13:34;;;;;;;6.00;4.30;;;15.00;99.90;;;;;;5033826;28;20481;-73
2022/10/21 04:16:04;;;;;;;5.17;3.97;;;15.00;99.90;;;;;;5023156;28;20431;-73
2022/10/21 04:18:31;;;;;;;5.93;4.33;;;15.00;99.90;;;;;;4998034;28;20999;-73
2022/10/21 04:20:57;;;;;;;4.00;3.60;;;15.00;99.90;;;;;;5034119;28;20402;-73
2022/10/21 04:23:23;;;;;;;5.07;4.47;;;15.00;99.90;;;;;;5018678;28;20970;-73
2022/10/21 04:26:12;;;;;;;6.87;4.07;;;15.00;99.90;;;;;;4936869;28;20475;-73
2022/10/21 04:28:38;;;;;;;6.77;4.13;;;15.00;99.90;;;;;;5037126;28;20434;-73
2022/10/21 04:31:06;;;;;;;5.20;4.13;;;15.00;99.90;;;;;;5038316;28;20415;-73
2022/10/21 04:33:34;;;;;;;4.80;3.50;;;15.00;99.90;;;;;;5039456;28;20521;-73
2022/10/21 04:36:00;;;;;;;4.87;3.70;;;15.00;99.90;;;;;;5028449;28;20452;-73
2022/10/21 04:38:29;;;;;;;5.70;4.10;;;15.00;99.90;;;;;;5029981;28;20440;-73
2022/10/21 04:41:01;;;;;;;4.60;3.50;;;15.00;99.90;;;;;;5018493;28;20419;-72
2022/10/21 04:43:30;;;;;;;6.80;4.13;;;15.00;99.90;;;;;;5000911;28;20515;-73
2022/10/21 04:45:58;;;;;;;12.63;3.90;;;15.00;99.90;;;;;;5006571;28;20458;-73
2022/10/21 04:48:27;;;;;;;5.33;3.77;;;15.00;99.90;;;;;;5009268;28;20499;-72
2022/10/21 04:51:00;;;;;;;6.97;4.43;;;15.00;99.90;;;;;;5043499;28;20441;-72
2022/10/21 04:53:28;;;;;;;4.40;3.83;;;15.00;99.90;;;;;;5047672;28;20524;-72
2022/10/21 04:55:57;;;;;;;5.13;4.10;;;15.00;99.90;;;;;;5036183;28;20461;-72
2022/10/21 04:58:23;;;;;;;5.03;3.60;;;15.00;99.90;;;;;;4998206;28;20475;-72
2022/10/21 05:00:50;;;;;;;7.20;4.03;;;15.00;99.90;;;;;;5037972;28;21010;-72
2022/10/21 05:03:16;;;;;;;4.27;3.87;;;15.00;99.90;;;;;;5015422;28;20477;-71
2022/10/21 05:05:42;;;;;;;5.70;3.93;;;15.00;99.90;;;;;;5040061;28;20463;-72
2022/10/21 05:08:08;;;;;;;5.33;3.40;;;15.00;99.90;;;;;;5049772;28;20456;-72
2022/10/21 05:10:36;;;;;;;4.43;3.73;;;15.00;99.90;;;;;;5047673;28;20420;-72
2022/10/21 05:13:05;;;;;;;5.67;4.40;;;15.00;99.90;;;;;;5034103;28;20442;-73
2022/10/21 05:15:36;;;;;;;6.43;3.60;;;15.00;99.90;;;;;;5030193;28;21052;-73
2022/10/21 05:18:05;;;;;;;4.83;3.70;;;15.00;99.90;;;;;;5024409;28;20448;-72
2022/10/21 05:20:31;;;;;;;6.33;3.90;;;15.00;99.90;;;;;;5058030;28;20899;-72
2022/10/21 05:22:59;;;;;;;3.57;3.23;;;15.00;99.90;;;;;;5010732;28;20434;-73
2022/10/21 05:25:28;;;;;;;5.30;3.93;;;15.00;99.90;;;;;;5019719;28;20459;-73
2022/10/21 05:27:54;;;;;;;5.80;3.40;;;15.00;99.90;;;;;;5037081;28;20548;-73
2022/10/21 05:30:22;;;;;;;5.40;3.93;;;15.00;99.90;;;;;;5029170;28;21028;-75
2022/10/21 05:32:49;;;;;;;5.20;3.77;;;15.00;99.90;;;;;;5032712;28;20441;-73
2022/10/21 05:35:15;;;;;;;5.30;3.23;;;15.00;99.90;;;;;;5015601;28;20474;-75
2022/10/21 05:37:41;;;;;;;5.43;3.80;;;15.00;99.90;;;;;;5019115;28;20530;-74
2022/10/21 05:40:07;;;;;;;4.50;3.73;;;15.00;99.90;;;;;;5034529;28;20420;-74
2022/10/21 05:42:36;;;;;;;4.57;3.47;;;15.00;99.90;;;;;;5011719;28;20439;-75
2022/10/21 05:45:07;;;;;;;4.30;3.10;;;15.00;99.90;;;;;;5002274;28;20443;-74
2022/10/21 05:47:39;;;;;;;6.07;3.70;;;15.00;99.90;;;;;;5016437;28;20471;-74
2022/10/21 05:50:09;;;;;;;4.10;3.43;;;15.00;99.90;;;;;;5030989;28;20422;-73
2022/10/21 05:52:35;;;;;;;5.80;3.47;;;15.00;99.90;;;;;;5008038;28;20428;-73
2022/10/21 05:55:07;;;;;;;7.87;3.43;;;15.00;99.90;;;;;;5003784;28;20765;-74
2022/10/21 05:57:42;;;;;;;3.30;3.00;;;15.00;99.90;;;;;;5016597;28;20456;-74
2022/10/21 06:00:14;;;;;;;3.70;3.10;;;15.00;99.90;;;;;;5000776;28;20404;-74
2022/10/21 06:02:40;;;;;;;4.70;3.93;;;15.00;99.90;;;;;;5000666;28;20406;-73
2022/10/21 06:05:06;;;;;;;4.73;3.40;;;15.00;99.90;;;;;;5012864;28;20663;-75
2022/10/21 06:07:35;;;;;;;4.47;3.80;;;15.00;99.90;;;;;;5005092;28;20453;-74
2022/10/21 06:10:02;;;;;;;8.93;3.67;;;15.00;99.90;;;;;;5016270;28;20424;-74
2022/10/21 06:12:30;;;;;;;7.80;3.70;;;15.00;99.90;;;;;;5016226;28;20519;-74
2022/10/21 06:14:58;;;;;;;4.90;3.13;;;15.00;99.90;;;;;;5012092;28;20445;-74
2022/10/21 06:17:29;;;;;;;4.43;3.17;;;15.00;99.90;;;;;;5013179;28;20436;-74
2022/10/21 06:19:55;;;;;;;11.30;3.10;;;15.00;99.90;;;;;;5012729;28;20508;-74
2022/10/21 06:22:21;;;;;;;3.60;3.20;;;15.00;99.90;;;;;;5012854;28;20425;-74
2022/10/21 06:24:49;;;;;;;5.63;3.27;;;15.00;99.90;;;;;;5015835;28;20499;-74
2022/10/21 06:27:15;;;;;;;4.50;3.23;;;15.00;99.90;;;;;;5015764;28;20508;-74
2022/10/21 06:29:41;;;;;;;6.00;3.80;;;15.00;99.90;;;;;;5016309;28;20454;-75
2022/10/21 06:32:07;;;;;;;5.30;4.00;;;15.00;99.90;;;;;;5015996;28;20396;-74
2022/10/21 06:34:33;;;;;;;4.03;3.50;;;15.00;99.90;;;;;;5014669;28;20452;-74
2022/10/21 06:37:02;;;;;;;6.33;3.10;;;15.00;99.90;;;;;;5011068;28;20934;-77
2022/10/21 06:39:28;;;;;;;4.73;2.93;;;15.00;99.90;;;;;;5011838;28;20907;-76
2022/10/21 06:41:54;;;;;;;4.10;3.20;;;15.00;99.90;;;;;;5015478;28;20538;-76
2022/10/21 06:44:41;;;;;;;4.77;3.00;;;15.00;99.90;;;;;;5016707;28;20538;-78
2022/10/21 06:47:07;;;;;;;5.60;3.20;;;15.00;99.90;;;;;;5016927;28;20479;-76
2022/10/21 06:49:47;;;;;;;3.70;3.10;;;15.00;99.90;;;;;;5019061;28;20474;-76
2022/10/21 06:52:18;;;;;;;5.10;3.23;;;15.00;99.90;;;;;;5014602;28;20483;-72
2022/10/21 06:54:46;;;;;;;4.33;3.00;;;15.00;99.90;;;;;;5033278;28;20439;-73
2022/10/21 06:57:15;;;;;;;4.83;3.23;;;15.00;99.90;;;;;;5015323;28;20554;-73
2022/10/21 06:59:41;;;;;;;4.63;3.20;;;15.00;99.90;;;;;;4980587;28;20433;-73
2022/10/21 07:02:08;;;;;;;3.23;2.93;;;15.00;99.90;;;;;;4995996;28;20442;-72
2022/10/21 07:04:36;;;;;;;3.57;3.27;;;15.00;99.90;;;;;;4996341;28;20425;-71
2022/10/21 07:07:02;;;;;;;3.40;2.70;;;15.00;99.90;;;;;;5013573;28;20460;-72
2022/10/21 07:09:29;;;;;;;6.97;3.03;;;15.00;99.90;;;;;;5014365;28;20734;-72
2022/10/21 07:12:02;;;;;;;4.63;2.90;;;15.00;99.90;;;;;;5016030;28;20421;-71
2022/10/21 07:14:28;;;;;;;4.80;2.90;;;15.00;99.90;;;;;;5016368;28;20883;-71
2022/10/21 07:16:54;;;;;;;4.30;3.10;;;15.00;99.90;;;;;;4981675;28;20969;-74
2022/10/21 07:19:20;;;;;;;6.73;2.83;;;15.00;99.90;;;;;;5015647;28;20399;-76
2022/10/21 07:21:48;;;;;;;4.90;3.00;;;15.00;99.90;;;;;;5015169;28;20491;-75
2022/10/21 07:24:17;;;;;;;5.17;3.20;;;15.00;99.90;;;;;;5015546;28;20574;-74
2022/10/21 07:26:43;;;;;;;3.97;2.90;;;15.00;99.90;;;;;;5014501;28;20463;-75
2022/10/21 07:29:11;;;;;;;4.93;3.20;;;15.00;99.90;;;;;;5031877;28;20864;-74
2022/10/21 07:31:37;;;;;;;3.90;2.70;;;15.00;99.90;;;;;;5003541;28;20409;-74
2022/10/21 07:34:07;;;;;;;4.30;3.00;;;15.00;99.90;;;;;;4993228;28;20806;-75
2022/10/21 07:36:38;;;;;;;4.73;2.87;;;15.00;99.90;;;;;;5032177;28;20995;-73
2022/10/21 07:39:12;;;;;;;6.03;3.30;;;15.00;99.90;;;;;;5014472;28;20413;-73
2022/10/21 07:41:42;;;;;;;3.83;2.57;;;15.00;99.90;;;;;;5014449;28;20406;-74
2022/10/21 07:44:09;;;;;;;3.50;3.13;;;15.00;99.90;;;;;;5014374;28;20398;-74
2022/10/21 07:46:40;;;;;;;3.87;2.83;;;15.00;99.90;;;;;;4998008;28;20447;-74
2022/10/21 07:49:08;;;;;;;3.83;2.87;;;15.00;99.90;;;;;;5014333;28;20431;-74
2022/10/21 07:51:34;;;;;;;4.60;2.80;;;15.00;99.90;;;;;;5010619;28;20423;-74
2022/10/21 07:54:05;;;;;;;5.93;2.90;;;15.00;99.90;;;;;;4994755;28;20504;-74
2022/10/21 07:56:39;;;;;;;12.90;3.27;;;15.00;99.90;;;;;;4994667;28;20452;-74
2022/10/21 07:59:08;;;;;;;3.00;2.67;;;15.00;99.90;;;;;;4994552;28;20523;-74
2022/10/21 08:01:39;;;;;;;5.97;3.30;;;15.00;99.90;;;;;;4994447;28;20431;-74
2022/10/21 08:04:14;;;;;;;3.27;2.97;;;15.10;99.90;;;;;;4994440;28;20479;-74
2022/10/21 08:06:46;;;;;;;4.73;3.47;;;15.10;99.90;;;;;;5013858;28;20456;-74
2022/10/21 08:09:13;;;;;;;4.20;2.97;;;15.00;99.90;;;;;;5014149;28;20419;-74
2022/10/21 08:11:41;;;;;;;5.83;2.90;;;15.00;99.90;;;;;;5014326;28;20415;-74
2022/10/21 08:14:10;;;;;;;4.00;3.07;;;15.10;99.90;;;;;;5031555;28;21013;-74
2022/10/21 08:16:37;;;;;;;3.87;3.10;;;15.10;99.90;;;;;;4997370;28;20578;-74
2022/10/21 08:19:04;;;;;;;4.10;3.00;;;15.10;99.90;;;;;;5013340;28;20525;-74
2022/10/21 08:21:31;;;;;;;3.80;2.90;;;15.10;99.90;;;;;;4981549;28;20429;-74
2022/10/21 08:24:03;;;;;;;6.00;2.80;;;15.00;99.90;;;;;;5013555;28;20457;-74
2022/10/21 08:26:29;;;;;;;4.70;3.30;;;15.00;99.90;;;;;;5031835;28;20941;-75
2022/10/21 08:28:55;;;;;;;3.10;2.80;;;15.10;99.90;;;;;;5008688;28;20472;-74
2022/10/21 08:31:21;;;;;;;6.70;3.33;;;15.10;99.90;;;;;;5013567;28;20421;-74
2022/10/21 08:33:54;;;;;;;5.33;3.20;;;15.10;99.90;;;;;;5010568;28;20475;-74
2022/10/21 08:36:25;;;;;;;3.87;2.63;;;15.10;99.90;;;;;;4995729;28;20497;-74
2022/10/21 08:38:51;;;;;;;3.80;3.20;;;15.10;99.90;;;;;;5012434;28;20939;-74
2022/10/21 08:41:30;;;;;;;5.13;3.20;;;15.10;99.90;;;;;;4995955;28;20928;-74
2022/10/21 08:44:15;;;;;;;4.30;3.20;;;15.10;99.90;;;;;;4995939;28;20455;-74
2022/10/21 08:46:46;;;;;;;2.50;2.30;;;15.10;99.90;;;;;;5013154;28;20448;-74
2022/10/21 08:49:54;;;;;;;6.60;3.23;;;15.10;99.90;;;;;;5012183;28;20840;-74
2022/10/21 08:52:43;;;;;;;5.10;3.00;;;15.10;99.90;;;;;;4995944;28;20421;-74
2022/10/21 08:55:34;;;;;;;4.63;2.80;;;15.10;99.90;;;;;;4995726;28;20397;-74
2022/10/21 08:58:02;;;;;;;3.40;3.07;;;15.10;99.90;;;;;;4995658;28;20452;-73
2022/10/21 09:00:48;;;;;;;5.57;3.93;;;15.10;99.90;;;;;;5011970;28;20406;-73
2022/10/21 09:03:42;;;;;;;5.37;2.80;;;15.10;99.90;;;;;;4995933;28;20799;-73
2022/10/21 09:06:17;;;;;;;6.53;3.80;;;15.10;99.90;;;;;;5013074;28;20948;-74
2022/10/21 09:08:49;;;;;;;5.60;3.77;;;15.10;99.90;;;;;;4995545;28;20467;-74
2022/10/21 09:11:35;;;;;;;8.50;5.40;;;15.20;99.90;;;;;;4995737;28;20421;-74
2022/10/21 09:14:20;;;;;;;4.20;3.00;;;15.20;99.90;;;;;;4995514;28;20476;-73
2022/10/21 09:16:57;;;;;;;6.63;3.20;;;15.20;99.90;;;;;;5026202;28;20439;-76
2022/10/21 09:19:26;;;;;;;6.10;3.47;;;15.20;99.90;;;;;;5036435;28;20494;-76
2022/10/21 09:22:13;;;;;;;7.40;3.47;;;15.20;99.90;;;;;;4982012;28;20953;-76
2022/10/21 09:24:53;;;;;;;5.13;3.10;;;15.20;99.90;;;;;;5016232;28;20459;-77
2022/10/21 09:27:36;;;;;;;4.07;3.17;;;15.20;99.90;;;;;;5016531;28;20915;-76
2022/10/21 09:30:13;;;;;;;4.57;3.57;;;15.20;99.90;;;;;;4999229;28;20444;-75
2022/10/21 09:32:48;;;;;;;4.67;3.63;;;15.20;99.90;;;;;;4982705;28;20410;-76
2022/10/21 09:35:27;;;;;;;5.97;3.70;;;15.20;99.90;;;;;;5016245;28;20438;-77
2022/10/21 09:38:20;;;;;;;4.47;3.53;;;15.20;99.90;;;;;;5032588;28;20442;-78
2022/10/21 09:40:58;;;;;;;4.93;3.40;;;15.20;99.90;;;;;;4982662;28;20416;-75
2022/10/21 09:43:25;;;;;;;3.80;3.40;;;15.20;99.90;;;;;;5015594;28;20415;-76
2022/10/21 09:45:54;;;;;;;4.97;3.00;;;15.20;99.90;;;;;;4998099;28;20546;-77
2022/10/21 09:48:31;;;;;;;3.50;3.00;;;15.20;99.90;;;;;;4998148;28;20443;-76
2022/10/21 09:51:08;;;;;;;3.60;3.30;;;15.30;99.90;;;;;;5035411;28;20459;-76
2022/10/21 09:53:54;;;;;;;4.00;3.10;;;15.30;99.90;;;;;;5035940;28;20422;-77
2022/10/21 09:56:48;;;;;;;6.90;4.00;;;15.20;99.90;;;;;;5034837;28;20439;-76
2022/10/21 09:59:20;;;;;;;4.30;3.30;;;15.20;99.90;;;;;;5015902;28;20486;-77
2022/10/21 10:01:47;;;;;;;4.10;3.30;;;15.30;99.90;;;;;;5035239;28;20430;-77
2022/10/21 10:04:28;;;;;;;3.73;3.43;;;15.20;99.90;;;;;;5034240;28;20466;-79
2022/10/21 10:06:54;;;;;;;6.13;3.00;;;15.20;99.90;;;;;;5013901;28;20452;-78
2022/10/21 10:09:33;;;;;;;4.67;3.50;;;15.20;99.90;;;;;;4998087;28;20416;-74
2022/10/21 10:12:02;;;;;;;5.93;3.77;;;15.20;99.90;;;;;;4998453;28;20439;-72
2022/10/21 10:14:38;;;;;;;4.17;2.97;;;15.20;99.90;;;;;;4998264;28;20397;-72
2022/10/21 10:17:22;;;;;;;5.37;3.40;;;15.30;99.90;;;;;;4981994;28;20792;-72
2022/10/21 10:20:04;;;;;;;5.63;3.20;;;15.20;99.90;;;;;;4998067;28;20465;-72
2022/10/21 10:22:32;;;;;;;4.07;2.77;;;15.30;99.90;;;;;;4998152;28;20428;-72
2022/10/21 10:25:17;;;;;;;4.30;3.17;;;15.30;99.90;;;;;;4997843;28;20413;-72
2022/10/21 10:27:53;;;;;;;3.73;3.40;;;15.30;99.90;;;;;;5030848;28;20914;-72
2022/10/21 10:30:21;;;;;;;5.10;4.10;;;15.30;99.90;;;;;;5034002;28;20484;-72
2022/10/21 10:32:54;;;;;;;4.33;3.20;;;15.30;99.90;;;;;;5017933;28;20470;-72
2022/10/21 10:35:37;;;;;;;4.50;3.30;;;15.30;99.90;;;;;;5017462;28;20449;-72
2022/10/21 10:38:08;;;;;;;4.93;3.00;;;15.30;99.90;;;;;;5017416;28;20491;-72
2022/10/21 10:40:42;;;;;;;10.40;3.53;;;15.30;99.90;;;;;;5017262;28;20901;-72
2022/10/21 10:43:34;;;;;;;3.90;2.93;;;15.30;99.90;;;;;;5035110;28;20411;-72
2022/10/21 10:46:07;;;;;;;7.17;3.60;;;15.30;99.90;;;;;;5034718;28;20448;-72
2022/10/21 10:48:43;;;;;;;4.70;2.90;;;15.30;99.90;;;;;;5016609;28;20841;-72
2022/10/21 10:51:31;;;;;;;5.83;3.60;;;15.30;99.90;;;;;;5033966;28;20422;-73
2022/10/21 10:54:05;;;;;;;4.67;3.63;;;15.30;99.90;;;;;;5034662;28;20760;-72
2022/10/21 10:56:54;;;;;;;4.07;2.97;;;15.30;99.90;;;;;;5016454;28;20416;-73
2022/10/21 10:59:20;;;;;;;5.80;3.40;;;15.30;99.90;;;;;;5032812;28;20435;-72
2022/10/21 11:02:30;;;;;;;8.30;3.47;;;15.30;99.90;;;;;;4999388;28;20845;-74
2022/10/21 11:05:08;;;;;;;3.40;2.97;;;15.30;99.90;;;;;;4995819;28;20789;-72
2022/10/21 11:07:48;;;;;;;7.63;3.23;;;15.30;99.90;;;;;;4991375;28;20613;-73
2022/10/21 11:10:32;;;;;;;5.27;3.50;;;15.30;99.90;;;;;;5015319;28;20912;-73
2022/10/21 11:13:03;;;;;;;4.63;3.13;;;15.30;99.90;;;;;;5015281;28;20446;-72
2022/10/21 11:15:37;;;;;;;6.07;3.50;;;15.30;99.90;;;;;;4998778;28;20507;-72
2022/10/21 11:18:27;;;;;;;8.13;3.00;;;15.30;99.90;;;;;;5032791;28;20423;-69
2022/10/21 11:21:06;;;;;;;6.23;3.07;;;15.40;99.90;;;;;;4995809;28;20836;-72
2022/10/21 11:23:53;;;;;;;4.00;3.50;;;15.40;99.90;;;;;;5034642;28;20756;-71
2022/10/21 11:26:43;;;;;;;5.20;3.60;;;15.40;99.90;;;;;;5009664;28;20517;-72
2022/10/21 11:29:31;;;;;;;12.23;4.40;;;15.40;99.90;;;;;;4998106;28;20490;-72
2022/10/21 11:31:57;;;;;;;8.10;4.20;;;15.50;99.90;;;;;;5044097;28;20521;-72
2022/10/21 11:35:01;;;;;;;19.00;4.13;;;15.60;99.90;;;;;;5026589;28;20519;-72
2022/10/21 11:37:49;;;;;;;6.67;4.40;;;15.70;99.90;;;;;;5014355;28;21167;-72
2022/10/21 11:40:24;;;;;;;7.43;3.47;;;15.80;99.90;;;;;;5031886;28;20427;-72
2022/10/21 11:42:55;;;;;;;5.80;3.87;;;15.90;99.90;;;;;;5015954;28;20426;-69
2022/10/21 11:46:00;;;;;;;10.20;3.80;;;15.90;99.90;;;;;;5042954;28;20488;-70
2022/10/21 11:48:58;;;;;;;7.13;3.23;;;15.90;99.90;;;;;;5022142;28;20458;-69
2022/10/21 11:51:41;;;;;;;11.03;3.67;;;15.80;99.90;;;;;;5029605;28;20859;-69
2022/10/21 11:54:31;;;;;;;8.67;3.90;;;15.80;99.90;;;;;;5013400;28;20900;-70
2022/10/21 11:57:38;;;;;;;4.80;3.20;;;15.80;99.90;;;;;;5015799;28;20451;-70
2022/10/21 12:00:12;;;;;;;5.40;3.40;;;15.80;99.90;;;;;;5018174;28;20501;-71
2022/10/21 12:03:00;;;;;;;4.50;3.00;;;15.80;99.90;;;;;;5013144;28;20439;-70
2022/10/21 12:05:31;;;;;;;3.83;3.13;;;15.80;99.90;;;;;;4997265;28;20435;-70
2022/10/21 12:08:08;;;;;;;5.57;2.70;;;15.80;99.90;;;;;;5003512;28;21007;-70
2022/10/21 12:10:56;;;;;;;3.50;2.70;;;15.80;99.90;;;;;;5016864;28;20490;-71
2022/10/21 12:13:53;;;;;;;4.90;3.77;;;15.80;99.90;;;;;;5002799;28;20490;-70
2022/10/21 12:16:24;;;;;;;7.00;2.97;;;15.80;99.90;;;;;;5028191;28;20439;-70
2022/10/21 12:18:56;;;;;;;4.23;3.33;;;15.80;99.90;;;;;;5028980;28;20435;-70
2022/10/21 12:21:28;;;;;;;3.37;2.57;;;15.80;99.90;;;;;;5026330;28;20535;-70
2022/10/21 12:24:22;;;;;;;4.90;3.00;;;15.80;99.90;;;;;;5045330;28;20431;-69
2022/10/21 12:27:18;;;;;;;5.03;2.83;;;15.80;99.90;;;;;;5001733;28;20491;-70
2022/10/21 12:30:11;;;;;;;6.57;2.97;;;15.80;99.90;;;;;;5012662;28;20435;-70
2022/10/21 12:32:40;;;;;;;3.70;2.63;;;15.80;99.90;;;;;;5008888;28;20455;-70
2022/10/21 12:35:41;;;;;;;6.10;3.10;;;15.80;99.90;;;;;;5036471;28;20938;-70
2022/10/21 12:38:19;;;;;;;4.40;2.53;;;15.90;99.90;;;;;;5017566;28;20547;-70
2022/10/21 12:41:20;;;;;;;3.10;2.70;;;15.90;99.90;;;;;;5030347;28;21093;-72
2022/10/21 12:44:01;;;;;;;3.20;2.50;;;15.90;99.90;;;;;;4982349;28;20530;-70
2022/10/21 12:46:50;;;;;;;6.00;3.20;;;15.90;99.90;;;;;;5012423;28;20476;-69
2022/10/21 12:49:29;;;;;;;4.50;2.53;;;15.90;99.90;;;;;;5023404;28;20960;-70
2022/10/21 12:52:11;;;;;;;5.93;2.70;;;15.90;99.90;;;;;;5005495;28;20513;-71
2022/10/21 12:54:55;;;;;;;4.53;2.50;;;15.90;99.90;;;;;;5026924;28;20460;-71
2022/10/21 12:57:27;;;;;;;4.23;2.67;;;16.00;99.90;;;;;;5050387;28;20966;-71
2022/10/21 13:00:28;;;;;;;9.13;3.00;;;16.00;99.90;;;;;;5035618;28;20506;-69
2022/10/21 13:03:03;;;;;;;2.80;2.20;;;16.00;99.90;;;;;;5030439;28;20426;-69
2022/10/21 13:05:38;;;;;;;4.80;2.50;;;16.00;99.90;;;;;;5008199;28;20463;-69
2022/10/21 13:08:23;;;;;;;4.07;2.30;;;16.00;99.90;;;;;;5031436;28;21008;-70
2022/10/21 13:11:22;;;;;;;3.10;2.00;;;16.00;99.90;;;;;;5044648;28;20426;-70
2022/10/21 13:14:20;;;;;;;4.13;2.37;;;16.00;99.90;;;;;;4991160;28;20798;-69
2022/10/21 13:16:46;;;;;;;2.97;2.13;;;16.10;99.90;;;;;;5031819;28;20441;-71
2022/10/21 13:19:14;;;;;;;3.70;2.60;;;16.10;99.90;;;;;;5033297;28;20422;-69
2022/10/21 13:21:51;;;;;;;4.77;2.47;;;16.10;99.90;;;;;;5051060;28;20750;-70